Metar GG30 METAR message from awiacja.imgw.pl Metar G30 EPMO METAR EPMO 181330Z 33009KT 300V010 CAVOK 18/04 Q1027 =